Saint Elmo, Alabama
Current Conditions -  °F | °C
As of 6:56 PM on Friday 21 Nov 2014 (Local Time) from KMOB Reporting Station
Few Clouds Few Clouds  
Wind Chill: 52°   Ceiling: Unl
Heat Index: 52°   Visibility: 10mi
Dew Point: 46°   Wind: 0mph
Humidity: 80%   Direction: NA
Pressure: 30.31"   Gusts: NA
Location:  30.5°N, 88.25°W
Report Text: KMOB 220056Z 00000KT 10SM FEW200 11/08 A3031 RMK AO2 SLP262 T01110078
Loading
Personal Weather Stations






























Interactive Weather Map New forecast layout! Learn more

10-Day Weather Forecast

Advertisements
Track Severe Weather on mobile